sensor_id;sensor_type;location;lat;lon;timestamp;pressure;altitude;pressure_sealevel;temperature;humidity
84511;BME280;74730;43.858;18.424;2024-03-17T00:01:03;95818.03;;;9.29;80.85
84511;BME280;74730;43.858;18.424;2024-03-17T00:03:29;95824.03;;;9.21;80.70
84511;BME280;74730;43.858;18.424;2024-03-17T00:05:57;95819.59;;;9.15;80.75
84511;BME280;74730;43.858;18.424;2024-03-17T00:08:23;95819.81;;;9.06;80.67
84511;BME280;74730;43.858;18.424;2024-03-17T00:10:55;95815.63;;;9.05;81.11
84511;BME280;74730;43.858;18.424;2024-03-17T00:13:22;95822.91;;;9.01;80.88
84511;BME280;74730;43.858;18.424;2024-03-17T00:15:50;95822.63;;;8.96;80.84
84511;BME280;74730;43.858;18.424;2024-03-17T00:18:17;95814.25;;;8.94;80.68
84511;BME280;74730;43.858;18.424;2024-03-17T00:20:43;95814.59;;;8.91;81.20
84511;BME280;74730;43.858;18.424;2024-03-17T00:23:09;95817.03;;;8.93;81.36
84511;BME280;74730;43.858;18.424;2024-03-17T00:25:37;95822.50;;;8.89;81.22
84511;BME280;74730;43.858;18.424;2024-03-17T00:28:03;95816.72;;;8.87;81.93
84511;BME280;74730;43.858;18.424;2024-03-17T00:30:29;95811.41;;;8.89;82.16
84511;BME280;74730;43.858;18.424;2024-03-17T00:32:55;95814.31;;;8.86;81.61
84511;BME280;74730;43.858;18.424;2024-03-17T00:35:20;95817.75;;;8.78;81.72
84511;BME280;74730;43.858;18.424;2024-03-17T00:37:50;95821.66;;;8.74;82.21
84511;BME280;74730;43.858;18.424;2024-03-17T00:40:17;95820.38;;;8.70;81.77
84511;BME280;74730;43.858;18.424;2024-03-17T00:42:42;95827.31;;;8.70;82.42
84511;BME280;74730;43.858;18.424;2024-03-17T00:45:09;95819.75;;;8.68;82.89
84511;BME280;74730;43.858;18.424;2024-03-17T00:47:38;95824.91;;;8.68;82.75
84511;BME280;74730;43.858;18.424;2024-03-17T00:50:05;95820.38;;;8.70;82.78
84511;BME280;74730;43.858;18.424;2024-03-17T00:52:32;95827.31;;;8.70;82.25
84511;BME280;74730;43.858;18.424;2024-03-17T00:54:58;95833.25;;;8.70;82.12
84511;BME280;74730;43.858;18.424;2024-03-17T00:57:23;95825.53;;;8.70;82.32
84511;BME280;74730;43.858;18.424;2024-03-17T00:59:50;95818.78;;;8.69;82.60
84511;BME280;74730;43.858;18.424;2024-03-17T01:02:16;95817.31;;;8.67;82.35
84511;BME280;74730;43.858;18.424;2024-03-17T01:04:42;95820.09;;;8.65;82.70
84511;BME280;74730;43.858;18.424;2024-03-17T01:07:11;95825.25;;;8.65;82.36
84511;BME280;74730;43.858;18.424;2024-03-17T01:09:38;95817.31;;;8.67;83.17
84511;BME280;74730;43.858;18.424;2024-03-17T01:12:04;95825.69;;;8.69;83.41
84511;BME280;74730;43.858;18.424;2024-03-17T01:14:30;95818.25;;;8.74;82.79
84511;BME280;74730;43.858;18.424;2024-03-17T01:16:56;95828.06;;;8.78;81.70
84511;BME280;74730;43.858;18.424;2024-03-17T01:19:23;95823.19;;;8.83;81.85
84511;BME280;74730;43.858;18.424;2024-03-17T01:21:49;95814.03;;;8.81;81.75
84511;BME280;74730;43.858;18.424;2024-03-17T01:24:14;95806.13;;;8.82;81.60
84511;BME280;74730;43.858;18.424;2024-03-17T01:26:40;95817.06;;;8.84;81.79
84511;BME280;74730;43.858;18.424;2024-03-17T01:29:05;95804.88;;;8.78;81.16
84511;BME280;74730;43.858;18.424;2024-03-17T01:31:31;95808.94;;;8.73;82.13
84511;BME280;74730;43.858;18.424;2024-03-17T01:33:57;95811.06;;;8.69;81.63
84511;BME280;74730;43.858;18.424;2024-03-17T01:36:22;95809.28;;;8.70;82.30
84511;BME280;74730;43.858;18.424;2024-03-17T01:38:48;95811.84;;;8.70;82.29
84511;BME280;74730;43.858;18.424;2024-03-17T01:41:13;95817.00;;;8.70;81.79
84511;BME280;74730;43.858;18.424;2024-03-17T01:43:40;95814.44;;;8.70;82.36
84511;BME280;74730;43.858;18.424;2024-03-17T01:46:06;95818.59;;;8.71;82.65
84511;BME280;74730;43.858;18.424;2024-03-17T01:48:36;95816.81;;;8.71;82.13
84511;BME280;74730;43.858;18.424;2024-03-17T01:51:01;95813.78;;;8.68;82.75
84511;BME280;74730;43.858;18.424;2024-03-17T01:53:28;95816.88;;;8.63;82.20
84511;BME280;74730;43.858;18.424;2024-03-17T01:55:57;95811.72;;;8.63;82.45
84511;BME280;74730;43.858;18.424;2024-03-17T01:58:27;95815.59;;;8.59;82.72
84511;BME280;74730;43.858;18.424;2024-03-17T02:00:56;95813.19;;;8.58;83.01
84511;BME280;74730;43.858;18.424;2024-03-17T02:03:21;95817.38;;;8.59;83.12
84511;BME280;74730;43.858;18.424;2024-03-17T02:05:47;95816.25;;;8.61;82.88
84511;BME280;74730;43.858;18.424;2024-03-17T02:08:13;95819.44;;;8.63;83.35
84511;BME280;74730;43.858;18.424;2024-03-17T02:10:38;95816.88;;;8.63;82.97
84511;BME280;74730;43.858;18.424;2024-03-17T02:13:04;95820.91;;;8.66;83.29
84511;BME280;74730;43.858;18.424;2024-03-17T02:15:32;95815.56;;;8.67;83.21
84511;BME280;74730;43.858;18.424;2024-03-17T02:17:57;95823.41;;;8.74;83.19
84511;BME280;74730;43.858;18.424;2024-03-17T02:20:23;95824.69;;;8.78;82.12
84511;BME280;74730;43.858;18.424;2024-03-17T02:23:07;95822.72;;;8.80;81.78
84511;BME280;74730;43.858;18.424;2024-03-17T02:25:33;95821.75;;;8.81;81.76
84511;BME280;74730;43.858;18.424;2024-03-17T02:27:58;95836.25;;;8.82;81.50
84511;BME280;74730;43.858;18.424;2024-03-17T02:30:24;95827.09;;;8.79;81.80
84511;BME280;74730;43.858;18.424;2024-03-17T02:32:53;95830.94;;;8.75;81.80
84511;BME280;74730;43.858;18.424;2024-03-17T02:35:25;95829.53;;;8.73;81.29
84511;BME280;74730;43.858;18.424;2024-03-17T02:37:51;95830.41;;;8.65;81.65
84511;BME280;74730;43.858;18.424;2024-03-17T02:40:17;95831.69;;;8.61;81.33
84511;BME280;74730;43.858;18.424;2024-03-17T02:42:44;95831.50;;;8.63;81.54
84511;BME280;74730;43.858;18.424;2024-03-17T02:45:13;95837.13;;;8.66;82.14
84511;BME280;74730;43.858;18.424;2024-03-17T02:47:39;95831.31;;;8.72;81.83
84511;BME280;74730;43.858;18.424;2024-03-17T02:50:05;95828.97;;;8.85;81.64
84511;BME280;74730;43.858;18.424;2024-03-17T02:52:30;95832.63;;;8.91;81.95
84511;BME280;74730;43.858;18.424;2024-03-17T02:54:56;95824.84;;;8.99;81.55
84511;BME280;74730;43.858;18.424;2024-03-17T02:57:21;95827.91;;;9.03;81.03
84511;BME280;74730;43.858;18.424;2024-03-17T02:59:49;95829.97;;;9.07;80.83
84511;BME280;74730;43.858;18.424;2024-03-17T03:02:15;95831.09;;;9.05;80.45
84511;BME280;74730;43.858;18.424;2024-03-17T03:04:40;95829.84;;;9.01;80.78
84511;BME280;74730;43.858;18.424;2024-03-17T03:07:06;95831.59;;;9.00;80.65
84511;BME280;74730;43.858;18.424;2024-03-17T03:09:31;95832.41;;;9.01;80.86
84511;BME280;74730;43.858;18.424;2024-03-17T03:11:57;95836.25;;;9.05;80.40
84511;BME280;74730;43.858;18.424;2024-03-17T03:14:23;95829.84;;;9.01;80.96
84511;BME280;74730;43.858;18.424;2024-03-17T03:16:49;95829.84;;;9.01;80.83
84511;BME280;74730;43.858;18.424;2024-03-17T03:19:15;95835.63;;;9.03;80.77
84511;BME280;74730;43.858;18.424;2024-03-17T03:21:40;95840.44;;;9.06;80.78
84511;BME280;74730;43.858;18.424;2024-03-17T03:24:06;95827.56;;;9.06;80.92
84511;BME280;74730;43.858;18.424;2024-03-17T03:26:31;95836.25;;;9.05;81.13
84511;BME280;74730;43.858;18.424;2024-03-17T03:28:57;95832.88;;;9.04;81.28
84511;BME280;74730;43.858;18.424;2024-03-17T03:31:22;95828.69;;;9.03;81.15
84511;BME280;74730;43.858;18.424;2024-03-17T03:33:48;95834.94;;;9.09;80.92
84511;BME280;74730;43.858;18.424;2024-03-17T03:36:15;95835.13;;;9.07;80.77
84511;BME280;74730;43.858;18.424;2024-03-17T03:38:42;95834.59;;;9.12;81.14
84511;BME280;74730;43.858;18.424;2024-03-17T03:41:14;95837.50;;;9.09;80.99
84511;BME280;74730;43.858;18.424;2024-03-17T03:43:40;95836.81;;;9.15;81.12
84511;BME280;74730;43.858;18.424;2024-03-17T03:46:07;95846.34;;;9.14;81.39
84511;BME280;74730;43.858;18.424;2024-03-17T03:48:33;95847.59;;;9.18;81.48
84511;BME280;74730;43.858;18.424;2024-03-17T03:51:06;95848.03;;;9.22;81.66
84511;BME280;74730;43.858;18.424;2024-03-17T03:53:32;95850.81;;;9.20;80.95
84511;BME280;74730;43.858;18.424;2024-03-17T03:55:58;95855.22;;;9.12;81.16
84511;BME280;74730;43.858;18.424;2024-03-17T03:58:28;95847.28;;;9.13;80.90
84511;BME280;74730;43.858;18.424;2024-03-17T04:00:56;95844.03;;;9.19;80.36
84511;BME280;74730;43.858;18.424;2024-03-17T04:03:21;95848.09;;;9.14;80.09
84511;BME280;74730;43.858;18.424;2024-03-17T04:05:48;95852.34;;;9.07;81.20
84511;BME280;74730;43.858;18.424;2024-03-17T04:08:13;95851.09;;;9.03;81.10
84511;BME280;74730;43.858;18.424;2024-03-17T04:10:39;95854.00;;;9.00;81.00
84511;BME280;74730;43.858;18.424;2024-03-17T04:13:04;95856.75;;;8.98;81.88
84511;BME280;74730;43.858;18.424;2024-03-17T04:15:30;95858.53;;;8.98;81.81
84511;BME280;74730;43.858;18.424;2024-03-17T04:17:56;95856.56;;;9.00;82.06
84511;BME280;74730;43.858;18.424;2024-03-17T04:20:21;95858.19;;;9.01;82.15
84511;BME280;74730;43.858;18.424;2024-03-17T04:22:47;95856.25;;;9.03;81.92
84511;BME280;74730;43.858;18.424;2024-03-17T04:25:14;95866.03;;;9.07;81.57
84511;BME280;74730;43.858;18.424;2024-03-17T04:27:40;95865.22;;;9.07;81.79
84511;BME280;74730;43.858;18.424;2024-03-17T04:30:06;95869.91;;;9.03;82.18
84511;BME280;74730;43.858;18.424;2024-03-17T04:32:32;95866.41;;;8.96;81.87
84511;BME280;74730;43.858;18.424;2024-03-17T04:34:59;95866.94;;;8.92;82.61
84511;BME280;74730;43.858;18.424;2024-03-17T04:37:24;95880.31;;;8.87;82.79
84511;BME280;74730;43.858;18.424;2024-03-17T04:39:50;95881.78;;;8.81;82.44
84511;BME280;74730;43.858;18.424;2024-03-17T04:42:17;95879.38;;;8.80;82.93
84511;BME280;74730;43.858;18.424;2024-03-17T04:44:44;95872.75;;;8.85;82.48
84511;BME280;74730;43.858;18.424;2024-03-17T04:47:09;95878.66;;;8.94;82.27
84511;BME280;74730;43.858;18.424;2024-03-17T04:49:43;95871.72;;;9.03;81.88
84511;BME280;74730;43.858;18.424;2024-03-17T04:52:12;95877.38;;;8.98;82.20
84511;BME280;74730;43.858;18.424;2024-03-17T04:54:38;95884.81;;;8.93;82.39
84511;BME280;74730;43.858;18.424;2024-03-17T04:57:04;95885.63;;;8.85;83.08
84511;BME280;74730;43.858;18.424;2024-03-17T04:59:30;95894.84;;;8.80;82.89
84511;BME280;74730;43.858;18.424;2024-03-17T05:01:55;95892.44;;;8.78;83.00
84511;BME280;74730;43.858;18.424;2024-03-17T05:04:21;95893.72;;;8.82;83.68
84511;BME280;74730;43.858;18.424;2024-03-17T05:06:48;95896.75;;;8.86;82.67
84511;BME280;74730;43.858;18.424;2024-03-17T05:09:15;95899.31;;;8.86;82.80
84511;BME280;74730;43.858;18.424;2024-03-17T05:11:41;95904.00;;;8.82;82.68
84511;BME280;74730;43.858;18.424;2024-03-17T05:14:07;95901.72;;;8.87;82.84
84511;BME280;74730;43.858;18.424;2024-03-17T05:16:33;95914.63;;;8.87;82.48
84511;BME280;74730;43.858;18.424;2024-03-17T05:18:58;95917.50;;;8.93;82.53
84511;BME280;74730;43.858;18.424;2024-03-17T05:21:24;95918.63;;;8.90;81.86
84511;BME280;74730;43.858;18.424;2024-03-17T05:23:52;95924.41;;;8.92;81.67
84511;BME280;74730;43.858;18.424;2024-03-17T05:26:18;95921.69;;;8.94;81.92
84511;BME280;74730;43.858;18.424;2024-03-17T05:28:43;95927.75;;;9.01;81.99
84511;BME280;74730;43.858;18.424;2024-03-17T05:31:10;95927.41;;;9.04;82.04
84511;BME280;74730;43.858;18.424;2024-03-17T05:33:35;95925.13;;;9.09;81.72
84511;BME280;74730;43.858;18.424;2024-03-17T05:36:02;95924.91;;;9.18;81.74
84511;BME280;74730;43.858;18.424;2024-03-17T05:38:29;95933.09;;;9.22;81.59
84511;BME280;74730;43.858;18.424;2024-03-17T05:40:59;95926.97;;;9.23;81.46
84511;BME280;74730;43.858;18.424;2024-03-17T05:43:28;95933.09;;;9.22;81.73
84511;BME280;74730;43.858;18.424;2024-03-17T05:45:54;95939.03;;;9.22;81.61
84511;BME280;74730;43.858;18.424;2024-03-17T05:48:21;95937.91;;;9.25;82.16
84511;BME280;74730;43.858;18.424;2024-03-17T05:50:47;95940.16;;;9.28;81.88
84511;BME280;74730;43.858;18.424;2024-03-17T05:53:13;95939.00;;;9.30;81.52
84511;BME280;74730;43.858;18.424;2024-03-17T05:55:38;95946.22;;;9.35;81.19
84511;BME280;74730;43.858;18.424;2024-03-17T05:58:06;95948.28;;;9.40;80.80
84511;BME280;74730;43.858;18.424;2024-03-17T06:00:34;95944.41;;;9.44;80.89
84511;BME280;74730;43.858;18.424;2024-03-17T06:02:59;95947.59;;;9.46;80.64
84511;BME280;74730;43.858;18.424;2024-03-17T06:05:25;95940.31;;;9.49;80.35
84511;BME280;74730;43.858;18.424;2024-03-17T06:07:50;95952.53;;;9.55;79.92
84511;BME280;74730;43.858;18.424;2024-03-17T06:10:16;95953.63;;;9.61;79.93
84511;BME280;74730;43.858;18.424;2024-03-17T06:12:41;95955.53;;;9.67;79.34
84511;BME280;74730;43.858;18.424;2024-03-17T06:15:07;95952.06;;;9.74;79.07
84511;BME280;74730;43.858;18.424;2024-03-17T06:17:32;95952.97;;;9.82;78.87
84511;BME280;74730;43.858;18.424;2024-03-17T06:19:57;95962.59;;;9.88;78.71
84511;BME280;74730;43.858;18.424;2024-03-17T06:22:23;95958.34;;;9.95;78.96
84511;BME280;74730;43.858;18.424;2024-03-17T06:24:49;95958.81;;;9.98;78.03
84511;BME280;74730;43.858;18.424;2024-03-17T06:27:15;95964.78;;;9.99;78.04
84511;BME280;74730;43.858;18.424;2024-03-17T06:29:41;95964.25;;;10.03;77.23
84511;BME280;74730;43.858;18.424;2024-03-17T06:32:08;95970.38;;;10.02;77.60
84511;BME280;74730;43.858;18.424;2024-03-17T06:34:33;95972.16;;;10.02;77.94
84511;BME280;74730;43.858;18.424;2024-03-17T06:36:58;95969.66;;;10.08;77.74
84511;BME280;74730;43.858;18.424;2024-03-17T06:39:25;95973.34;;;10.14;77.70
84511;BME280;74730;43.858;18.424;2024-03-17T06:41:50;95977.84;;;10.20;77.94
84511;BME280;74730;43.858;18.424;2024-03-17T06:44:16;95968.41;;;10.27;77.33
84511;BME280;74730;43.858;18.424;2024-03-17T06:46:42;95968.78;;;10.39;77.14
84511;BME280;74730;43.858;18.424;2024-03-17T06:49:07;95983.84;;;10.50;76.50
84511;BME280;74730;43.858;18.424;2024-03-17T06:51:32;95973.34;;;10.66;75.80
84511;BME280;74730;43.858;18.424;2024-03-17T06:53:58;95985.19;;;10.90;74.53
84511;BME280;74730;43.858;18.424;2024-03-17T06:56:24;95983.47;;;11.11;75.07
84511;BME280;74730;43.858;18.424;2024-03-17T06:58:50;95982.88;;;11.31;73.38
84511;BME280;74730;43.858;18.424;2024-03-17T07:01:17;95987.53;;;11.35;72.81
84511;BME280;74730;43.858;18.424;2024-03-17T07:03:42;95990.66;;;11.31;72.94
84511;BME280;74730;43.858;18.424;2024-03-17T07:06:09;95995.38;;;11.27;73.61
84511;BME280;74730;43.858;18.424;2024-03-17T07:08:35;95999.50;;;11.22;73.72
84511;BME280;74730;43.858;18.424;2024-03-17T07:11:01;96001.38;;;11.13;73.34
84511;BME280;74730;43.858;18.424;2024-03-17T07:13:46;95995.94;;;11.08;73.16
84511;BME280;74730;43.858;18.424;2024-03-17T07:16:12;96005.13;;;11.10;72.97
84511;BME280;74730;43.858;18.424;2024-03-17T07:18:37;96004.50;;;11.08;72.08
84511;BME280;74730;43.858;18.424;2024-03-17T07:21:04;96006.72;;;11.11;71.38
84511;BME280;74730;43.858;18.424;2024-03-17T07:23:29;96011.09;;;11.11;71.34
84511;BME280;74730;43.858;18.424;2024-03-17T07:25:55;96008.88;;;11.08;72.80
84511;BME280;74730;43.858;18.424;2024-03-17T07:28:21;96010.66;;;11.07;72.84
84511;BME280;74730;43.858;18.424;2024-03-17T07:30:51;96006.19;;;11.01;72.95
84511;BME280;74730;43.858;18.424;2024-03-17T07:33:17;96018.69;;;10.98;72.78
84511;BME280;74730;43.858;18.424;2024-03-17T07:35:55;96017.72;;;10.99;72.91
84511;BME280;74730;43.858;18.424;2024-03-17T07:38:23;96018.75;;;11.04;73.34
84511;BME280;74730;43.858;18.424;2024-03-17T07:40:55;96020.72;;;11.02;73.10
84511;BME280;74730;43.858;18.424;2024-03-17T07:43:22;96017.25;;;11.10;73.08
84511;BME280;74730;43.858;18.424;2024-03-17T07:45:47;96016.00;;;11.21;72.38
84511;BME280;74730;43.858;18.424;2024-03-17T07:48:21;96010.72;;;11.29;73.01
84511;BME280;74730;43.858;18.424;2024-03-17T07:50:55;96017.63;;;11.43;72.85
84511;BME280;74730;43.858;18.424;2024-03-17T07:53:21;96008.66;;;11.60;71.92
84511;BME280;74730;43.858;18.424;2024-03-17T07:55:46;96010.44;;;11.74;71.87
84511;BME280;74730;43.858;18.424;2024-03-17T07:58:11;96003.84;;;11.93;71.31
84511;BME280;74730;43.858;18.424;2024-03-17T08:00:37;96011.97;;;12.11;70.89
84511;BME280;74730;43.858;18.424;2024-03-17T08:03:02;96017.06;;;12.26;70.09
84511;BME280;74730;43.858;18.424;2024-03-17T08:05:29;96017.97;;;12.39;69.18
84511;BME280;74730;43.858;18.424;2024-03-17T08:07:55;96025.28;;;12.57;70.29
84511;BME280;74730;43.858;18.424;2024-03-17T08:10:20;96019.94;;;12.65;68.50
84511;BME280;74730;43.858;18.424;2024-03-17T08:12:47;96024.44;;;12.78;69.11
84511;BME280;74730;43.858;18.424;2024-03-17T08:15:12;96025.88;;;12.87;68.08
84511;BME280;74730;43.858;18.424;2024-03-17T08:17:39;96028.06;;;12.90;67.59
84511;BME280;74730;43.858;18.424;2024-03-17T08:20:05;96030.50;;;12.92;67.82
84511;BME280;74730;43.858;18.424;2024-03-17T08:22:31;96037.63;;;12.83;67.04
84511;BME280;74730;43.858;18.424;2024-03-17T08:24:56;96039.75;;;12.73;67.84
84511;BME280;74730;43.858;18.424;2024-03-17T08:27:22;96034.91;;;12.63;68.24
84511;BME280;74730;43.858;18.424;2024-03-17T08:29:48;96036.19;;;12.53;68.47
84511;BME280;74730;43.858;18.424;2024-03-17T08:32:14;96040.34;;;12.47;68.49
84511;BME280;74730;43.858;18.424;2024-03-17T08:34:40;96038.63;;;12.54;68.90
84511;BME280;74730;43.858;18.424;2024-03-17T08:37:05;96037.06;;;12.60;68.96
84511;BME280;74730;43.858;18.424;2024-03-17T08:39:31;96029.84;;;12.83;69.05
84511;BME280;74730;43.858;18.424;2024-03-17T08:41:57;96028.00;;;13.11;67.39
84511;BME280;74730;43.858;18.424;2024-03-17T08:44:22;96034.91;;;13.32;66.97
84511;BME280;74730;43.858;18.424;2024-03-17T08:46:48;96032.75;;;13.49;66.11
84511;BME280;74730;43.858;18.424;2024-03-17T08:49:14;96034.59;;;13.61;64.56
84511;BME280;74730;43.858;18.424;2024-03-17T08:51:39;96029.25;;;13.69;64.20
84511;BME280;74730;43.858;18.424;2024-03-17T08:54:05;96035.41;;;13.55;64.52
84511;BME280;74730;43.858;18.424;2024-03-17T08:56:31;96029.81;;;13.58;63.77
84511;BME280;74730;43.858;18.424;2024-03-17T08:58:56;96035.19;;;13.57;63.79
84511;BME280;74730;43.858;18.424;2024-03-17T09:01:22;96042.09;;;13.37;63.18
84511;BME280;74730;43.858;18.424;2024-03-17T09:03:49;96034.69;;;13.27;63.36
84511;BME280;74730;43.858;18.424;2024-03-17T09:06:17;96034.31;;;13.37;64.18
84511;BME280;74730;43.858;18.424;2024-03-17T09:08:44;96039.13;;;13.40;65.09
84511;BME280;74730;43.858;18.424;2024-03-17T09:11:13;96034.91;;;13.39;65.52
84511;BME280;74730;43.858;18.424;2024-03-17T09:13:39;96033.72;;;13.35;64.44
84511;BME280;74730;43.858;18.424;2024-03-17T09:16:05;96043.03;;;13.22;65.16
84511;BME280;74730;43.858;18.424;2024-03-17T09:18:32;96034.72;;;13.34;65.02
84511;BME280;74730;43.858;18.424;2024-03-17T09:21:00;96027.88;;;13.26;64.53
84511;BME280;74730;43.858;18.424;2024-03-17T09:23:26;96021.97;;;13.45;64.51
84511;BME280;74730;43.858;18.424;2024-03-17T09:26:00;96025.66;;;13.77;63.59
84511;BME280;74730;43.858;18.424;2024-03-17T09:28:28;96028.06;;;13.85;63.43
84511;BME280;74730;43.858;18.424;2024-03-17T09:30:55;96024.94;;;14.29;62.27
84511;BME280;74730;43.858;18.424;2024-03-17T09:33:25;96018.91;;;14.88;60.65
84511;BME280;74730;43.858;18.424;2024-03-17T09:35:59;96011.16;;;15.39;58.52
84511;BME280;74730;43.858;18.424;2024-03-17T09:38:26;96020.84;;;15.63;56.94
84511;BME280;74730;43.858;18.424;2024-03-17T09:40:52;96023.94;;;15.40;56.51
84511;BME280;74730;43.858;18.424;2024-03-17T09:43:29;96021.25;;;15.09;57.72
84511;BME280;74730;43.858;18.424;2024-03-17T09:45:54;96023.94;;;14.50;58.16
84511;BME280;74730;43.858;18.424;2024-03-17T09:48:24;96022.13;;;14.17;59.60
84511;BME280;74730;43.858;18.424;2024-03-17T09:50:51;96032.09;;;13.94;60.89
84511;BME280;74730;43.858;18.424;2024-03-17T09:55:51;96026.25;;;13.72;61.44
84511;BME280;74730;43.858;18.424;2024-03-17T09:58:17;96028.22;;;13.64;63.34
84511;BME280;74730;43.858;18.424;2024-03-17T10:00:43;96033.56;;;13.43;62.21
84511;BME280;74730;43.858;18.424;2024-03-17T10:03:09;96020.72;;;13.35;62.99
84511;BME280;74730;43.858;18.424;2024-03-17T10:05:35;96043.50;;;13.39;63.41
84511;BME280;74730;43.858;18.424;2024-03-17T10:08:00;96022.78;;;13.52;63.62
84511;BME280;74730;43.858;18.424;2024-03-17T10:10:26;96014.63;;;13.62;63.92
84511;BME280;74730;43.858;18.424;2024-03-17T10:12:52;96003.72;;;13.86;63.03
84511;BME280;74730;43.858;18.424;2024-03-17T10:15:19;96006.13;;;14.07;63.24
84511;BME280;74730;43.858;18.424;2024-03-17T10:17:45;96001.16;;;14.45;61.77
84511;BME280;74730;43.858;18.424;2024-03-17T10:20:16;96004.91;;;14.82;61.93
84511;BME280;74730;43.858;18.424;2024-03-17T10:23:05;96003.16;;;15.27;60.34
84511;BME280;74730;43.858;18.424;2024-03-17T10:25:33;96002.47;;;15.58;58.74
84511;BME280;74730;43.858;18.424;2024-03-17T10:28:00;96002.00;;;15.68;58.18
84511;BME280;74730;43.858;18.424;2024-03-17T10:30:27;96009.34;;;15.84;58.07
84511;BME280;74730;43.858;18.424;2024-03-17T10:32:57;96005.19;;;16.08;57.46
84511;BME280;74730;43.858;18.424;2024-03-17T10:35:31;95997.75;;;16.36;56.75
84511;BME280;74730;43.858;18.424;2024-03-17T10:38:02;95998.19;;;16.58;56.92
84511;BME280;74730;43.858;18.424;2024-03-17T10:40:29;96000.72;;;16.64;55.79
84511;BME280;74730;43.858;18.424;2024-03-17T10:42:56;95989.88;;;16.67;55.03
84511;BME280;74730;43.858;18.424;2024-03-17T10:45:22;95993.31;;;16.86;55.64
84511;BME280;74730;43.858;18.424;2024-03-17T10:47:50;95989.75;;;17.17;54.69
84511;BME280;74730;43.858;18.424;2024-03-17T10:50:20;95992.34;;;17.35;52.84
84511;BME280;74730;43.858;18.424;2024-03-17T10:52:50;95985.59;;;17.46;53.33
84511;BME280;74730;43.858;18.424;2024-03-17T10:55:26;95989.22;;;17.75;52.44
84511;BME280;74730;43.858;18.424;2024-03-17T10:57:53;95990.22;;;17.92;50.82
84511;BME280;74730;43.858;18.424;2024-03-17T11:00:21;95987.03;;;18.01;50.69
84511;BME280;74730;43.858;18.424;2024-03-17T11:02:52;95984.66;;;18.00;48.58
84511;BME280;74730;43.858;18.424;2024-03-17T11:05:28;95986.09;;;17.84;49.60
84511;BME280;74730;43.858;18.424;2024-03-17T11:07:57;95985.75;;;17.92;49.02
84511;BME280;74730;43.858;18.424;2024-03-17T11:10:30;95983.63;;;17.59;48.99
84511;BME280;74730;43.858;18.424;2024-03-17T11:12:58;95983.13;;;17.33;48.90
84511;BME280;74730;43.858;18.424;2024-03-17T11:20:35;95999.44;;;15.99;53.54
84511;BME280;74730;43.858;18.424;2024-03-17T11:23:02;95991.00;;;15.66;54.70
84511;BME280;74730;43.858;18.424;2024-03-17T11:28:03;96008.00;;;15.24;58.40
84511;BME280;74730;43.858;18.424;2024-03-17T11:39:00;95973.56;;;15.22;60.14
84511;BME280;74730;43.858;18.424;2024-03-17T11:41:37;95973.16;;;15.25;59.82
84511;BME280;74730;43.858;18.424;2024-03-17T11:51:47;95962.47;;;15.84;57.54
84511;BME280;74730;43.858;18.424;2024-03-17T11:54:34;95966.50;;;15.80;57.38
84511;BME280;74730;43.858;18.424;2024-03-17T11:57:04;95964.59;;;15.93;56.36
84511;BME280;74730;43.858;18.424;2024-03-17T11:59:31;95957.84;;;16.11;56.81
84511;BME280;74730;43.858;18.424;2024-03-17T12:01:57;95956.72;;;16.25;57.21
84511;BME280;74730;43.858;18.424;2024-03-17T12:04:23;95954.00;;;16.38;56.35
84511;BME280;74730;43.858;18.424;2024-03-17T12:06:58;95947.81;;;16.57;54.57
84511;BME280;74730;43.858;18.424;2024-03-17T12:09:29;95950.16;;;16.65;54.21
84511;BME280;74730;43.858;18.424;2024-03-17T12:12:06;95949.50;;;16.88;53.91
84511;BME280;74730;43.858;18.424;2024-03-17T12:14:34;95947.69;;;17.25;52.94
84511;BME280;74730;43.858;18.424;2024-03-17T12:17:01;95959.09;;;17.42;53.07
84511;BME280;74730;43.858;18.424;2024-03-17T12:19:28;95956.47;;;17.60;52.62
84511;BME280;74730;43.858;18.424;2024-03-17T12:21:58;95947.81;;;17.90;51.00
84511;BME280;74730;43.858;18.424;2024-03-17T12:24:29;95948.31;;;18.10;48.78
84511;BME280;74730;43.858;18.424;2024-03-17T12:26:56;95942.50;;;18.20;48.77
84511;BME280;74730;43.858;18.424;2024-03-17T12:29:32;95943.00;;;18.28;48.71
84511;BME280;74730;43.858;18.424;2024-03-17T12:32:00;95938.66;;;18.34;48.90
84511;BME280;74730;43.858;18.424;2024-03-17T12:34:30;95930.47;;;18.19;47.70
84511;BME280;74730;43.858;18.424;2024-03-17T12:36:58;95931.72;;;18.16;46.65
84511;BME280;74730;43.858;18.424;2024-03-17T12:39:27;95928.19;;;18.10;45.46
84511;BME280;74730;43.858;18.424;2024-03-17T12:44:33;95935.41;;;17.55;47.30
84511;BME280;74730;43.858;18.424;2024-03-17T12:47:00;95932.34;;;17.28;48.83
84511;BME280;74730;43.858;18.424;2024-03-17T12:49:30;95926.38;;;17.10;48.35
84511;BME280;74730;43.858;18.424;2024-03-17T12:51:56;95929.75;;;16.80;49.55
84511;BME280;74730;43.858;18.424;2024-03-17T12:54:24;95918.25;;;16.45;50.96
84511;BME280;74730;43.858;18.424;2024-03-17T12:57:12;95910.25;;;15.97;51.85
84511;BME280;74730;43.858;18.424;2024-03-17T12:59:55;95905.63;;;15.74;52.33
84511;BME280;74730;43.858;18.424;2024-03-17T13:02:45;95894.41;;;15.74;51.72
84511;BME280;74730;43.858;18.424;2024-03-17T13:05:18;95884.13;;;15.54;51.49
84511;BME280;74730;43.858;18.424;2024-03-17T13:07:46;95880.22;;;15.32;51.89
84511;BME280;74730;43.858;18.424;2024-03-17T13:10:16;95886.28;;;15.26;51.29
84511;BME280;74730;43.858;18.424;2024-03-17T13:12:43;95880.22;;;15.32;51.79
84511;BME280;74730;43.858;18.424;2024-03-17T13:15:15;95877.38;;;15.40;52.10
84511;BME280;74730;43.858;18.424;2024-03-17T13:17:44;95877.53;;;15.45;51.38
84511;BME280;74730;43.858;18.424;2024-03-17T13:20:15;95867.19;;;15.38;51.84
84511;BME280;74730;43.858;18.424;2024-03-17T13:22:42;95864.69;;;15.19;53.45
84511;BME280;74730;43.858;18.424;2024-03-17T13:25:17;95855.13;;;15.13;53.96